createdAt,value
2023-01-11T00:02:04.885Z,82.13
2023-01-11T00:04:31.742Z,81.89
2023-01-11T00:06:58.569Z,81.94
2023-01-11T00:09:25.394Z,81.84
2023-01-11T00:11:52.243Z,82.30
2023-01-11T00:14:18.974Z,82.05
2023-01-11T00:16:45.767Z,82.33
2023-01-11T00:19:12.767Z,82.41
2023-01-11T00:21:39.588Z,82.10
2023-01-11T00:24:06.410Z,82.29
2023-01-11T00:26:33.429Z,82.49
2023-01-11T00:29:00.161Z,82.27
2023-01-11T00:31:26.923Z,82.29
2023-01-11T00:33:53.734Z,82.50
2023-01-11T00:36:21.449Z,82.87
2023-01-11T00:38:51.861Z,82.67
2023-01-11T00:41:36.452Z,82.37
2023-01-11T00:44:20.399Z,82.59
2023-01-11T00:47:02.400Z,82.40
2023-01-11T00:49:29.757Z,82.62
2023-01-11T00:51:56.649Z,82.49
2023-01-11T00:54:23.516Z,82.44
2023-01-11T00:56:50.500Z,82.49
2023-01-11T00:59:17.342Z,82.46
2023-01-11T01:01:44.131Z,82.44
2023-01-11T01:04:11.016Z,82.38
2023-01-11T01:06:53.483Z,82.52
2023-01-11T01:09:20.609Z,82.27
2023-01-11T01:11:47.340Z,82.38
2023-01-11T01:14:31.318Z,82.53
2023-01-11T01:17:02.370Z,82.32
2023-01-11T01:19:31.083Z,82.28
2023-01-11T01:21:59.333Z,82.27
2023-01-11T01:24:31.028Z,82.43
2023-01-11T01:26:58.475Z,82.22
2023-01-11T01:29:25.616Z,82.01
2023-01-11T01:31:52.387Z,82.22
2023-01-11T01:34:19.334Z,81.99
2023-01-11T01:36:46.106Z,82.19
2023-01-11T01:39:14.225Z,82.10
2023-01-11T01:41:41.182Z,81.80
2023-01-11T01:44:38.614Z,82.28
2023-01-11T01:47:05.644Z,81.89
2023-01-11T01:49:32.514Z,81.73
2023-01-11T01:52:00.245Z,81.92
2023-01-11T01:54:35.667Z,81.62
2023-01-11T01:57:09.683Z,81.83
2023-01-11T01:59:36.830Z,81.45
2023-01-11T02:02:03.731Z,81.53
2023-01-11T02:04:34.439Z,81.74
2023-01-11T02:07:06.792Z,81.78
2023-01-11T02:09:39.564Z,81.49
2023-01-11T02:12:07.975Z,81.68
2023-01-11T02:14:37.020Z,81.44
2023-01-11T02:17:04.017Z,81.33
2023-01-11T02:19:45.980Z,81.68
2023-01-11T02:22:32.014Z,81.66
2023-01-11T02:25:14.358Z,82.18
2023-01-11T02:27:56.453Z,81.86
2023-01-11T02:30:38.607Z,81.73
2023-01-11T02:33:06.340Z,81.70
2023-01-11T02:35:43.897Z,81.66
2023-01-11T02:38:17.417Z,81.61
2023-01-11T02:41:10.598Z,81.52
2023-01-11T02:44:09.625Z,81.49
2023-01-11T02:46:59.107Z,81.76
2023-01-11T02:49:30.338Z,81.51
2023-01-11T02:52:07.803Z,81.40
2023-01-11T02:54:37.895Z,81.48
2023-01-11T02:57:05.878Z,81.90
2023-01-11T02:59:35.788Z,81.79
2023-01-11T03:02:03.032Z,81.85
2023-01-11T03:04:32.223Z,82.13
2023-01-11T03:07:29.827Z,82.11
2023-01-11T03:10:15.894Z,82.28
2023-01-11T03:13:01.323Z,82.06
2023-01-11T03:15:46.612Z,82.13
2023-01-11T03:18:37.319Z,82.22
2023-01-11T03:21:24.654Z,82.36
2023-01-11T03:23:57.187Z,82.32
2023-01-11T03:26:31.228Z,82.44
2023-01-11T03:29:13.081Z,82.09
2023-01-11T03:31:50.163Z,82.18
2023-01-11T03:34:16.869Z,82.29
2023-01-11T03:36:54.772Z,81.97
2023-01-11T03:39:30.085Z,82.36
2023-01-11T03:42:01.659Z,82.36
2023-01-11T03:44:35.728Z,82.37
2023-01-11T03:47:07.222Z,82.27
2023-01-11T03:49:38.553Z,81.88
2023-01-11T03:52:09.538Z,81.79
2023-01-11T03:54:37.307Z,81.68
2023-01-11T03:57:18.687Z,81.44
2023-01-11T03:59:45.755Z,81.70
2023-01-11T04:02:16.980Z,81.94
2023-01-11T04:04:43.925Z,82.01
2023-01-11T04:07:10.861Z,82.02
2023-01-11T04:09:38.315Z,81.89
2023-01-11T04:12:05.446Z,82.19
2023-01-11T04:14:32.471Z,81.92
2023-01-11T04:16:59.229Z,82.24
2023-01-11T04:19:26.174Z,82.11
2023-01-11T04:21:53.024Z,82.16
2023-01-11T04:24:20.137Z,82.28
2023-01-11T04:26:46.866Z,82.17
2023-01-11T04:29:13.695Z,81.95
2023-01-11T04:31:40.432Z,82.20
2023-01-11T04:34:07.427Z,82.30
2023-01-11T04:36:34.176Z,82.17
2023-01-11T04:39:00.970Z,82.39
2023-01-11T04:41:43.107Z,82.26
2023-01-11T04:44:10.774Z,81.96
2023-01-11T04:46:37.500Z,82.09
2023-01-11T04:49:04.322Z,81.94
2023-01-11T04:51:31.180Z,82.27
2023-01-11T04:53:57.998Z,82.06
2023-01-11T04:56:24.789Z,81.91
2023-01-11T04:58:51.494Z,81.82
2023-01-11T05:01:19.686Z,81.84
2023-01-11T05:03:46.874Z,81.97
2023-01-11T05:06:14.839Z,81.76
2023-01-11T05:08:45.904Z,81.44
2023-01-11T05:11:12.782Z,81.93
2023-01-11T05:13:42.761Z,82.93
2023-01-11T05:16:15.368Z,82.49
2023-01-11T05:18:45.754Z,82.50
2023-01-11T05:21:15.128Z,82.84
2023-01-11T05:23:42.971Z,83.28
2023-01-11T05:26:13.318Z,83.78
2023-01-11T05:28:40.067Z,84.09
2023-01-11T05:31:06.897Z,84.19
2023-01-11T05:33:33.775Z,84.27
2023-01-11T05:36:02.725Z,83.98
2023-01-11T05:38:30.139Z,84.21
2023-01-11T05:40:58.794Z,84.26
2023-01-11T05:43:26.524Z,84.27
2023-01-11T05:45:53.736Z,84.46
2023-01-11T05:48:21.256Z,84.85
2023-01-11T05:50:52.782Z,84.85
2023-01-11T05:53:20.781Z,85.09
2023-01-11T05:55:56.935Z,85.13
2023-01-11T05:58:26.454Z,84.61
2023-01-11T06:00:55.681Z,84.53
2023-01-11T06:03:24.232Z,83.97
2023-01-11T06:05:52.123Z,84.01
2023-01-11T06:08:19.849Z,84.06
2023-01-11T06:10:55.511Z,84.27
2023-01-11T06:13:27.409Z,84.70
2023-01-11T06:16:11.910Z,84.92
2023-01-11T06:18:41.224Z,84.84
2023-01-11T06:21:09.390Z,84.92
2023-01-11T06:23:38.321Z,84.76
2023-01-11T06:26:07.364Z,85.16
2023-01-11T06:28:34.121Z,85.53
2023-01-11T06:31:01.190Z,85.76
2023-01-11T06:33:29.451Z,85.65
2023-01-11T06:35:57.287Z,85.72
2023-01-11T06:38:25.861Z,85.92
2023-01-11T06:40:53.903Z,85.94
2023-01-11T06:43:21.645Z,85.95
2023-01-11T06:45:48.915Z,86.19
2023-01-11T06:48:18.259Z,86.44
2023-01-11T06:50:50.031Z,86.50
2023-01-11T06:53:16.945Z,86.76
2023-01-11T06:55:43.991Z,86.84
2023-01-11T06:58:11.530Z,86.79
2023-01-11T07:00:38.660Z,86.92
2023-01-11T07:03:07.049Z,86.99
2023-01-11T07:05:35.389Z,87.16
2023-01-11T07:08:03.240Z,87.27
2023-01-11T07:10:30.333Z,87.70
2023-01-11T07:12:57.494Z,87.71
2023-01-11T07:15:24.926Z,87.72
2023-01-11T07:17:56.489Z,87.62
2023-01-11T07:20:24.478Z,87.47
2023-01-11T07:22:51.763Z,87.48
2023-01-11T07:25:19.457Z,87.63
2023-01-11T07:27:46.187Z,87.51
2023-01-11T07:30:13.388Z,87.76
2023-01-11T07:32:40.173Z,87.75
2023-01-11T07:35:07.552Z,87.34
2023-01-11T07:37:38.133Z,87.14
2023-01-11T07:40:05.524Z,87.22
2023-01-11T07:42:47.783Z,86.93
2023-01-11T07:45:14.670Z,86.59
2023-01-11T07:47:41.409Z,86.41
2023-01-11T07:50:08.634Z,86.58
2023-01-11T07:52:35.424Z,86.59
2023-01-11T07:55:02.873Z,86.58
2023-01-11T07:57:30.480Z,86.34
2023-01-11T07:59:57.333Z,86.43
2023-01-11T08:02:24.400Z,86.29
2023-01-11T08:04:51.268Z,86.55
2023-01-11T08:07:18.012Z,86.31
2023-01-11T08:09:44.811Z,86.26
2023-01-11T08:12:26.922Z,86.40
2023-01-11T08:14:53.651Z,85.78
2023-01-11T08:17:20.602Z,85.11
2023-01-11T08:19:47.329Z,84.81
2023-01-11T08:22:14.109Z,84.77
2023-01-11T08:24:41.037Z,84.86
2023-01-11T08:27:07.907Z,84.87
2023-01-11T08:29:34.747Z,84.83
2023-01-11T08:32:01.578Z,84.42
2023-01-11T08:34:29.227Z,84.16
2023-01-11T08:36:57.633Z,84.02
2023-01-11T08:39:25.078Z,84.13
2023-01-11T08:41:51.816Z,84.17
2023-01-11T08:44:29.061Z,84.55
2023-01-11T08:46:59.941Z,84.09
2023-01-11T08:49:26.664Z,83.92
2023-01-11T08:51:53.468Z,83.63
2023-01-11T08:54:20.312Z,83.61
2023-01-11T08:56:47.155Z,83.40
2023-01-11T08:59:14.165Z,83.20
2023-01-11T09:01:41.011Z,83.37
2023-01-11T09:04:19.335Z,83.33
2023-01-11T09:06:51.367Z,83.57
2023-01-11T09:09:18.151Z,83.41
2023-01-11T09:12:00.037Z,82.40
2023-01-11T09:14:28.410Z,82.56
2023-01-11T09:16:56.383Z,82.16
2023-01-11T09:19:23.280Z,81.62
2023-01-11T09:21:51.227Z,81.30
2023-01-11T09:24:18.044Z,80.68
2023-01-11T09:26:44.967Z,80.65
2023-01-11T09:29:12.249Z,80.86
2023-01-11T09:31:39.358Z,81.27
2023-01-11T09:34:07.178Z,81.59
2023-01-11T09:36:36.145Z,81.64
2023-01-11T09:39:07.703Z,81.69
2023-01-11T09:41:54.317Z,81.67
2023-01-11T09:44:26.057Z,81.68
2023-01-11T09:47:03.575Z,81.73
2023-01-11T09:49:40.846Z,81.58
2023-01-11T09:52:15.232Z,81.14
2023-01-11T09:54:43.280Z,81.32
2023-01-11T09:57:26.720Z,80.80
2023-01-11T10:00:06.778Z,81.17
2023-01-11T10:02:51.539Z,80.65
2023-01-11T10:05:35.800Z,80.49
2023-01-11T10:18:27.478Z,79.64
2023-01-11T10:18:33.760Z,79.81
2023-01-11T10:20:01.462Z,78.39
2023-01-11T10:22:41.362Z,78.47
2023-01-11T10:25:30.585Z,77.95
2023-01-11T10:28:04.701Z,77.43
2023-01-11T10:30:57.576Z,76.49
2023-01-11T10:33:59.296Z,76.58
2023-01-11T10:36:51.885Z,75.99
2023-01-11T10:39:57.254Z,73.93
2023-01-11T10:42:28.892Z,72.75
2023-01-11T10:45:18.353Z,71.89
2023-01-11T10:47:57.763Z,71.42
2023-01-11T10:50:33.744Z,70.53
2023-01-11T10:53:07.635Z,69.93
2023-01-11T10:55:49.843Z,67.71
2023-01-11T10:58:46.835Z,66.07
2023-01-11T11:01:29.015Z,65.48
2023-01-11T11:04:02.611Z,64.66
2023-01-11T11:06:29.852Z,64.42
2023-01-11T11:09:18.060Z,64.29
2023-01-11T11:11:54.335Z,64.77
2023-01-11T11:14:37.874Z,64.31
2023-01-11T11:17:18.307Z,63.19
2023-01-11T11:19:45.109Z,62.66
2023-01-11T11:22:13.107Z,61.31
2023-01-11T11:24:46.628Z,61.37
2023-01-11T11:27:19.765Z,61.75
2023-01-11T11:29:52.671Z,58.59
2023-01-11T11:32:37.894Z,58.90
2023-01-11T11:35:07.762Z,58.76
2023-01-11T11:37:36.566Z,59.64
2023-01-11T11:40:04.257Z,59.47
2023-01-11T11:42:31.052Z,59.36
2023-01-11T11:45:05.334Z,59.92
2023-01-11T11:47:32.065Z,60.51
2023-01-11T11:50:42.710Z,60.15
2023-01-11T11:53:22.484Z,60.12
2023-01-11T11:55:51.309Z,60.64
2023-01-11T11:58:21.296Z,60.77
2023-01-11T12:00:50.564Z,59.60
2023-01-11T12:03:23.679Z,60.15
2023-01-11T12:05:50.489Z,60.33
2023-01-11T12:08:17.946Z,60.97
2023-01-11T12:10:57.711Z,61.05
2023-01-11T12:13:27.996Z,61.19
2023-01-11T12:15:58.503Z,61.84
2023-01-11T12:18:30.621Z,61.20
2023-01-11T12:21:08.342Z,61.50
2023-01-11T12:23:35.109Z,61.93
2023-01-11T12:26:20.787Z,62.07
2023-01-11T12:29:06.287Z,61.57
2023-01-11T12:31:36.437Z,60.99
2023-01-11T12:34:20.837Z,61.16
2023-01-11T12:37:04.113Z,61.51
2023-01-11T12:39:43.734Z,61.53
2023-01-11T12:42:40.968Z,61.07
2023-01-11T12:45:08.851Z,61.74
2023-01-11T12:48:06.081Z,61.32
2023-01-11T12:50:45.864Z,61.89
2023-01-11T12:53:26.408Z,62.63
2023-01-11T12:56:00.838Z,62.15
2023-01-11T12:58:40.185Z,61.76
2023-01-11T13:01:24.112Z,61.45
2023-01-11T13:04:06.130Z,62.13
2023-01-11T13:07:03.767Z,62.83
2023-01-11T13:10:01.323Z,63.16
2023-01-11T13:12:36.808Z,63.16
2023-01-11T13:15:03.781Z,63.14
2023-01-11T13:17:33.817Z,62.69
2023-01-11T13:20:19.271Z,62.14
2023-01-11T13:22:51.735Z,61.87
2023-01-11T13:25:24.103Z,61.76
2023-01-11T13:27:53.511Z,62.45
2023-01-11T13:30:24.272Z,61.87
2023-01-11T13:32:55.924Z,62.13
2023-01-11T13:35:39.379Z,62.57
2023-01-11T13:38:23.081Z,62.48
2023-01-11T13:40:53.549Z,62.60
2023-01-11T13:43:44.942Z,62.51
2023-01-11T13:46:15.059Z,63.09
2023-01-11T13:48:42.932Z,63.24
2023-01-11T13:51:35.645Z,64.06
2023-01-11T13:54:11.623Z,64.33
2023-01-11T13:56:42.589Z,64.87
2023-01-11T13:59:14.412Z,65.22
2023-01-11T14:01:53.864Z,65.33
2023-01-11T14:04:27.912Z,65.80
2023-01-11T14:07:25.133Z,66.11
2023-01-11T14:09:53.359Z,66.75
2023-01-11T14:12:36.727Z,67.17
2023-01-11T14:15:22.361Z,67.67
2023-01-11T14:18:11.329Z,68.12
2023-01-11T14:20:44.856Z,68.51
2023-01-11T14:23:13.593Z,69.30
2023-01-11T14:26:01.379Z,69.52
2023-01-11T14:28:44.529Z,70.32
2023-01-11T14:31:21.706Z,70.18
2023-01-11T14:34:04.003Z,70.86
2023-01-11T14:36:53.628Z,71.40
2023-01-11T14:39:41.912Z,71.83
2023-01-11T14:42:16.250Z,72.16
2023-01-11T14:44:59.257Z,72.41
2023-01-11T14:47:56.762Z,72.80
2023-01-11T14:50:23.468Z,73.14
2023-01-11T14:52:53.255Z,73.37
2023-01-11T14:55:24.283Z,73.34
2023-01-11T14:58:09.715Z,73.56
2023-01-11T15:00:36.471Z,74.10
2023-01-11T15:03:07.108Z,74.20
2023-01-11T15:05:38.115Z,74.59
2023-01-11T15:08:09.945Z,75.31
2023-01-11T15:10:36.690Z,75.69
2023-01-11T15:13:13.287Z,76.15
2023-01-11T15:15:55.515Z,76.47
2023-01-11T15:18:24.585Z,76.70
2023-01-11T15:20:58.271Z,76.28
2023-01-11T15:23:26.248Z,76.51
2023-01-11T15:26:09.600Z,76.67
2023-01-11T15:28:50.311Z,76.88
2023-01-11T15:31:36.697Z,77.28
2023-01-11T15:34:20.801Z,77.71
2023-01-11T15:36:55.233Z,77.80
2023-01-11T15:39:53.469Z,77.72
2023-01-11T15:42:23.525Z,77.97
2023-01-11T15:45:06.489Z,77.89
2023-01-11T15:48:09.023Z,78.24
2023-01-11T15:50:44.208Z,78.54
2023-01-11T15:53:41.264Z,78.51
2023-01-11T15:56:25.421Z,78.62
2023-01-11T15:58:52.208Z,78.75
2023-01-11T16:01:28.672Z,78.76
2023-01-11T16:04:09.573Z,79.01
2023-01-11T16:06:58.562Z,78.96
2023-01-11T16:09:41.878Z,78.89
2023-01-11T16:12:12.030Z,78.96
2023-01-11T16:14:57.399Z,78.88
2023-01-11T16:17:25.346Z,79.32
2023-01-11T16:19:56.701Z,79.53
2023-01-11T16:22:26.494Z,79.87
2023-01-11T16:24:57.120Z,79.91
2023-01-11T16:27:26.937Z,80.22
2023-01-11T16:29:55.139Z,80.89
2023-01-11T16:32:27.180Z,80.83
2023-01-11T16:34:55.321Z,81.64
2023-01-11T16:37:24.978Z,81.84
2023-01-11T16:39:54.707Z,81.77
2023-01-11T16:42:22.833Z,82.00
2023-01-11T16:44:58.318Z,81.98
2023-01-11T16:47:25.275Z,82.05
2023-01-11T16:50:14.784Z,81.68
2023-01-11T16:52:48.437Z,81.87
2023-01-11T16:55:19.781Z,81.73
2023-01-11T16:57:52.622Z,81.88
2023-01-11T17:00:24.741Z,81.61
2023-01-11T17:03:01.952Z,81.65
2023-01-11T17:05:28.785Z,81.67
2023-01-11T17:07:55.543Z,81.57
2023-01-11T17:10:24.860Z,81.57
2023-01-11T17:13:37.456Z,81.32
2023-01-11T17:16:10.032Z,81.11
2023-01-11T17:18:40.091Z,81.11
2023-01-11T17:21:17.946Z,81.07
2023-01-11T17:23:46.066Z,81.61
2023-01-11T17:26:23.539Z,81.85
2023-01-11T17:28:55.933Z,82.10
2023-01-11T17:31:26.796Z,82.39
2023-01-11T17:34:03.844Z,82.15
2023-01-11T17:36:31.925Z,82.23
2023-01-11T17:38:59.283Z,81.98
2023-01-11T17:41:44.016Z,82.40
2023-01-11T17:44:36.731Z,83.04
2023-01-11T17:47:07.494Z,83.48
2023-01-11T17:49:35.593Z,83.94
2023-01-11T17:52:16.481Z,84.34
2023-01-11T17:54:43.415Z,84.60
2023-01-11T17:57:10.983Z,84.29
2023-01-11T17:59:37.751Z,84.11
2023-01-11T18:02:12.589Z,84.11
2023-01-11T18:04:40.187Z,83.58
2023-01-11T18:07:15.667Z,83.27
2023-01-11T18:09:48.800Z,83.12
2023-01-11T18:12:21.578Z,83.02
2023-01-11T18:14:54.090Z,83.35
2023-01-11T18:17:32.646Z,83.12
2023-01-11T18:20:00.989Z,82.79
2023-01-11T18:22:37.508Z,82.75
2023-01-11T18:25:20.246Z,82.52
2023-01-11T18:27:47.738Z,82.41
2023-01-11T18:30:29.788Z,82.19
2023-01-11T18:32:58.526Z,81.93
2023-01-11T18:35:25.413Z,81.78
2023-01-11T18:37:52.294Z,82.55
2023-01-11T18:40:19.761Z,82.48
2023-01-11T18:42:49.628Z,82.65
2023-01-11T18:45:17.258Z,83.29
2023-01-11T18:47:43.959Z,83.05
2023-01-11T18:50:12.694Z,82.73
2023-01-11T18:52:39.709Z,82.26
2023-01-11T18:55:10.032Z,81.92
2023-01-11T18:57:36.771Z,81.71
2023-01-11T19:00:04.271Z,81.61
2023-01-11T19:02:47.097Z,81.63
2023-01-11T19:05:18.651Z,81.08
2023-01-11T19:07:45.999Z,81.24
2023-01-11T19:10:16.240Z,80.59
2023-01-11T19:12:44.426Z,80.44
2023-01-11T19:15:12.414Z,80.40
2023-01-11T19:17:39.801Z,80.68
2023-01-11T19:20:09.213Z,80.91
2023-01-11T19:22:37.319Z,80.97
2023-01-11T19:25:05.159Z,81.23
2023-01-11T19:27:31.897Z,80.58
2023-01-11T19:29:59.192Z,80.79
2023-01-11T19:32:25.902Z,80.69
2023-01-11T19:34:53.875Z,80.40
2023-01-11T19:37:21.126Z,80.84
2023-01-11T19:39:47.963Z,81.27
2023-01-11T19:42:14.675Z,81.50
2023-01-11T19:44:42.604Z,81.69
2023-01-11T19:47:13.273Z,81.94
2023-01-11T19:49:41.886Z,82.24
2023-01-11T19:52:14.400Z,82.40
2023-01-11T19:54:42.859Z,82.57
2023-01-11T19:57:11.360Z,82.94
2023-01-11T19:59:38.336Z,83.48
2023-01-11T20:02:05.471Z,83.48
2023-01-11T20:04:33.038Z,83.20
2023-01-11T20:07:00.597Z,83.60
2023-01-11T20:09:27.634Z,84.00
2023-01-11T20:11:55.570Z,84.29
2023-01-11T20:14:22.441Z,84.48
2023-01-11T20:16:49.426Z,84.40
2023-01-11T20:19:16.408Z,84.99
2023-01-11T20:21:43.644Z,84.75
2023-01-11T20:24:12.941Z,84.61
2023-01-11T20:26:41.098Z,84.49
2023-01-11T20:29:08.327Z,84.44
2023-01-11T20:31:35.898Z,84.29
2023-01-11T20:34:08.277Z,84.10
2023-01-11T20:36:35.069Z,83.94
2023-01-11T20:39:02.055Z,83.89
2023-01-11T20:41:44.590Z,83.76
2023-01-11T20:44:12.363Z,83.49
2023-01-11T20:46:39.576Z,83.69
2023-01-11T20:49:08.038Z,83.42
2023-01-11T20:51:36.084Z,83.52
2023-01-11T20:54:04.491Z,83.48
2023-01-11T20:56:47.211Z,83.19
2023-01-11T20:59:17.408Z,82.83
2023-01-11T21:01:44.432Z,82.41
2023-01-11T21:04:12.174Z,81.99
2023-01-11T21:06:41.823Z,82.36
2023-01-11T21:09:10.019Z,82.49
2023-01-11T21:14:04.612Z,82.99
2023-01-11T21:16:31.953Z,82.66
2023-01-11T21:19:02.601Z,82.44
2023-01-11T21:21:32.241Z,82.22
2023-01-11T21:24:02.340Z,82.50
2023-01-11T21:26:30.420Z,82.26
2023-01-11T21:28:59.676Z,82.07
2023-01-11T21:31:29.498Z,81.89
2023-01-11T21:33:57.506Z,81.97
2023-01-11T21:36:26.038Z,82.03
2023-01-11T21:38:54.195Z,81.73
2023-01-11T21:41:40.903Z,81.79
2023-01-11T21:44:08.617Z,81.73
2023-01-11T21:46:35.754Z,81.79
2023-01-11T21:49:02.680Z,81.74
2023-01-11T21:51:31.076Z,82.03
2023-01-11T21:53:59.287Z,82.06
2023-01-11T21:56:26.401Z,81.73
2023-01-11T21:58:53.209Z,81.39
2023-01-11T22:01:21.856Z,81.31
2023-01-11T22:03:49.025Z,81.34
2023-01-11T22:06:16.550Z,81.36
2023-01-11T22:08:45.161Z,81.25
2023-01-11T22:11:14.153Z,81.00
2023-01-11T22:13:41.427Z,80.46
2023-01-11T22:16:11.978Z,79.79
2023-01-11T22:18:40.629Z,78.79
2023-01-11T22:21:08.612Z,77.73
2023-01-11T22:23:35.817Z,77.08
2023-01-11T22:26:04.487Z,76.75
2023-01-11T22:28:31.231Z,76.19
2023-01-11T22:31:07.699Z,75.90
2023-01-11T22:33:36.561Z,75.75
2023-01-11T22:36:18.717Z,75.43
2023-01-11T22:38:46.857Z,74.99
2023-01-11T22:41:14.900Z,74.76
2023-01-11T22:43:43.153Z,74.46
2023-01-11T22:46:15.348Z,73.97
2023-01-11T22:48:42.425Z,73.55
2023-01-11T22:51:10.335Z,72.92
2023-01-11T22:53:38.831Z,72.47
2023-01-11T22:56:06.670Z,72.42
2023-01-11T22:58:33.457Z,71.92
2023-01-11T23:01:10.817Z,72.03
2023-01-11T23:03:38.753Z,71.55
2023-01-11T23:06:06.640Z,71.67
2023-01-11T23:08:37.725Z,71.78
2023-01-11T23:11:04.957Z,71.78
2023-01-11T23:13:47.475Z,72.19
2023-01-11T23:16:15.057Z,72.51
2023-01-11T23:18:41.878Z,72.86
2023-01-11T23:21:08.715Z,73.30
2023-01-11T23:23:35.538Z,73.82
2023-01-11T23:26:02.295Z,74.18
2023-01-11T23:28:30.772Z,74.67
2023-01-11T23:30:57.481Z,75.07
2023-01-11T23:33:24.320Z,75.49
2023-01-11T23:35:59.255Z,76.20
2023-01-11T23:38:26.130Z,76.49
2023-01-11T23:41:08.362Z,77.14
2023-01-11T23:43:38.649Z,77.91
2023-01-11T23:46:21.110Z,78.61
2023-01-11T23:48:47.833Z,79.02
2023-01-11T23:51:14.756Z,79.76
2023-01-11T23:53:41.631Z,80.15
2023-01-11T23:56:08.399Z,80.50
2023-01-11T23:58:35.644Z,80.72
